sensor_id;sensor_type;location;lat;lon;timestamp;pressure;altitude;pressure_sealevel;temperature;humidity
5966;BME280;3009;43.224;27.976;2023-04-08T00:01:34;100850.78;;;6.30;69.79
5966;BME280;3009;43.224;27.976;2023-04-08T00:04:03;100852.13;;;6.27;71.16
5966;BME280;3009;43.224;27.976;2023-04-08T00:06:33;100848.66;;;6.27;72.11
5966;BME280;3009;43.224;27.976;2023-04-08T00:09:03;100848.13;;;6.19;74.57
5966;BME280;3009;43.224;27.976;2023-04-08T00:11:31;100837.47;;;6.14;75.52
5966;BME280;3009;43.224;27.976;2023-04-08T00:13:59;100835.34;;;6.11;76.64
5966;BME280;3009;43.224;27.976;2023-04-08T00:16:28;100839.06;;;6.15;77.98
5966;BME280;3009;43.224;27.976;2023-04-08T00:18:56;100840.91;;;6.10;80.14
5966;BME280;3009;43.224;27.976;2023-04-08T00:21:25;100840.91;;;6.10;80.88
5966;BME280;3009;43.224;27.976;2023-04-08T00:23:54;100837.22;;;6.06;81.74
5966;BME280;3009;43.224;27.976;2023-04-08T00:26:23;100840.69;;;6.01;80.24
5966;BME280;3009;43.224;27.976;2023-04-08T00:28:52;100840.13;;;5.99;79.20
5966;BME280;3009;43.224;27.976;2023-04-08T00:31:20;100844.34;;;5.95;81.41
5966;BME280;3009;43.224;27.976;2023-04-08T00:33:49;100842.53;;;6.00;80.78
5966;BME280;3009;43.224;27.976;2023-04-08T00:36:17;100841.69;;;5.95;82.92
5966;BME280;3009;43.224;27.976;2023-04-08T00:38:46;100843.88;;;5.98;84.47
5966;BME280;3009;43.224;27.976;2023-04-08T00:41:16;100848.63;;;5.91;86.78
5966;BME280;3009;43.224;27.976;2023-04-08T00:43:44;100843.28;;;5.91;86.92
5966;BME280;3009;43.224;27.976;2023-04-08T00:46:13;100846.75;;;5.91;76.13
5966;BME280;3009;43.224;27.976;2023-04-08T00:48:42;100843.28;;;5.96;77.74
5966;BME280;3009;43.224;27.976;2023-04-08T00:51:11;100841.94;;;5.93;76.58
5966;BME280;3009;43.224;27.976;2023-04-08T00:53:40;100845.69;;;5.92;78.83
5966;BME280;3009;43.224;27.976;2023-04-08T00:56:08;100843.56;;;5.89;78.83
5966;BME280;3009;43.224;27.976;2023-04-08T00:58:38;100845.13;;;5.90;79.09
5966;BME280;3009;43.224;27.976;2023-04-08T01:01:13;100848.06;;;5.89;81.50
5966;BME280;3009;43.224;27.976;2023-04-08T01:03:55;100841.44;;;5.86;81.07
5966;BME280;3009;43.224;27.976;2023-04-08T01:06:31;100843.81;;;5.93;80.37
5966;BME280;3009;43.224;27.976;2023-04-08T01:09:04;100851.81;;;5.93;79.70
5966;BME280;3009;43.224;27.976;2023-04-08T01:11:34;100841.44;;;5.86;82.47
5966;BME280;3009;43.224;27.976;2023-04-08T01:14:06;100842.78;;;6.09;78.95
5966;BME280;3009;43.224;27.976;2023-04-08T01:16:39;100845.19;;;6.11;77.91
5966;BME280;3009;43.224;27.976;2023-04-08T01:19:09;100841.72;;;6.00;79.34
5966;BME280;3009;43.224;27.976;2023-04-08T01:21:44;100844.41;;;6.00;80.47
5966;BME280;3009;43.224;27.976;2023-04-08T01:24:18;100846.22;;;5.94;80.50
5966;BME280;3009;43.224;27.976;2023-04-08T01:26:50;100843.81;;;5.93;79.39
5966;BME280;3009;43.224;27.976;2023-04-08T01:29:19;100842.22;;;5.92;78.99
5966;BME280;3009;43.224;27.976;2023-04-08T01:31:48;100843.56;;;5.89;77.81
5966;BME280;3009;43.224;27.976;2023-04-08T01:34:17;100845.16;;;5.85;76.68
5966;BME280;3009;43.224;27.976;2023-04-08T01:36:47;100844.31;;;5.79;77.09
5966;BME280;3009;43.224;27.976;2023-04-08T01:39:18;100849.13;;;5.82;77.48
5966;BME280;3009;43.224;27.976;2023-04-08T01:41:51;100847.81;;;5.80;79.01
5966;BME280;3009;43.224;27.976;2023-04-08T01:44:21;100845.13;;;5.75;78.24
5966;BME280;3009;43.224;27.976;2023-04-08T01:46:52;100845.94;;;5.75;77.99
5966;BME280;3009;43.224;27.976;2023-04-08T01:49:21;100842.72;;;5.73;78.43
5966;BME280;3009;43.224;27.976;2023-04-08T01:51:52;100844.34;;;5.74;78.54
5966;BME280;3009;43.224;27.976;2023-04-08T01:54:22;100845.91;;;5.70;79.04
5966;BME280;3009;43.224;27.976;2023-04-08T01:56:53;100845.38;;;5.68;81.30
5966;BME280;3009;43.224;27.976;2023-04-08T01:59:26;100838.19;;;5.63;80.18
5966;BME280;3009;43.224;27.976;2023-04-08T02:01:57;100844.03;;;5.65;81.44
5966;BME280;3009;43.224;27.976;2023-04-08T02:04:26;100848.03;;;5.63;82.33
5966;BME280;3009;43.224;27.976;2023-04-08T02:06:55;100847.75;;;5.59;82.01
5966;BME280;3009;43.224;27.976;2023-04-08T02:09:24;100846.44;;;5.62;84.51
5966;BME280;3009;43.224;27.976;2023-04-08T02:11:56;100842.19;;;5.56;85.10
5966;BME280;3009;43.224;27.976;2023-04-08T02:14:24;100851.72;;;5.52;85.01
5966;BME280;3009;43.224;27.976;2023-04-08T02:16:55;100841.13;;;5.67;77.90
5966;BME280;3009;43.224;27.976;2023-04-08T02:19:29;100844.84;;;5.71;76.54
5966;BME280;3009;43.224;27.976;2023-04-08T02:22:04;100843.28;;;5.85;76.46
5966;BME280;3009;43.224;27.976;2023-04-08T02:24:33;100844.88;;;5.81;78.45
5966;BME280;3009;43.224;27.976;2023-04-08T02:27:05;100849.13;;;5.77;79.62
5966;BME280;3009;43.224;27.976;2023-04-08T02:29:36;100855.75;;;5.75;80.92
5966;BME280;3009;43.224;27.976;2023-04-08T02:32:07;100861.38;;;5.78;81.25
5966;BME280;3009;43.224;27.976;2023-04-08T02:34:39;100858.16;;;5.76;82.05
5966;BME280;3009;43.224;27.976;2023-04-08T02:37:08;100857.09;;;5.72;82.65
5966;BME280;3009;43.224;27.976;2023-04-08T02:39:36;100857.91;;;5.78;83.24
5966;BME280;3009;43.224;27.976;2023-04-08T02:42:06;100856.28;;;5.72;83.17
5966;BME280;3009;43.224;27.976;2023-04-08T02:44:37;100862.41;;;5.67;84.30
5966;BME280;3009;43.224;27.976;2023-04-08T02:47:05;100858.97;;;5.66;84.79
5966;BME280;3009;43.224;27.976;2023-04-08T02:49:34;100870.66;;;5.71;85.42
5966;BME280;3009;43.224;27.976;2023-04-08T02:52:02;100873.56;;;5.69;85.83
5966;BME280;3009;43.224;27.976;2023-04-08T02:54:30;100874.09;;;5.66;86.14
5966;BME280;3009;43.224;27.976;2023-04-08T02:56:59;100880.47;;;5.60;86.70
5966;BME280;3009;43.224;27.976;2023-04-08T02:59:29;100877.50;;;5.46;87.76
5966;BME280;3009;43.224;27.976;2023-04-08T03:01:57;100883.34;;;5.38;89.05
5966;BME280;3009;43.224;27.976;2023-04-08T03:04:26;100876.88;;;5.23;90.13
5966;BME280;3009;43.224;27.976;2023-04-08T03:06:54;100872.03;;;5.05;92.96
5966;BME280;3009;43.224;27.976;2023-04-08T03:09:22;100881.53;;;4.95;95.26
5966;BME280;3009;43.224;27.976;2023-04-08T03:11:51;100877.41;;;4.72;97.69
5966;BME280;3009;43.224;27.976;2023-04-08T03:14:20;100880.03;;;4.67;98.01
5966;BME280;3009;43.224;27.976;2023-04-08T03:16:50;100881.34;;;4.65;97.60
5966;BME280;3009;43.224;27.976;2023-04-08T03:19:19;100881.84;;;4.61;98.73
5966;BME280;3009;43.224;27.976;2023-04-08T03:21:47;100888.25;;;4.66;99.64
5966;BME280;3009;43.224;27.976;2023-04-08T03:24:15;100884.81;;;4.65;99.36
5966;BME280;3009;43.224;27.976;2023-04-08T03:26:44;100887.72;;;4.64;99.05
5966;BME280;3009;43.224;27.976;2023-04-08T03:29:12;100891.72;;;4.66;98.96
5966;BME280;3009;43.224;27.976;2023-04-08T03:31:41;100893.03;;;4.64;99.83
5966;BME280;3009;43.224;27.976;2023-04-08T03:34:10;100889.56;;;4.63;99.88
5966;BME280;3009;43.224;27.976;2023-04-08T03:36:39;100897.28;;;4.65;99.08
5966;BME280;3009;43.224;27.976;2023-04-08T03:39:07;100899.69;;;4.66;98.01
5966;BME280;3009;43.224;27.976;2023-04-08T03:41:36;100900.84;;;4.81;96.10
5966;BME280;3009;43.224;27.976;2023-04-08T03:44:04;100901.72;;;4.91;95.85
5966;BME280;3009;43.224;27.976;2023-04-08T03:46:32;100907.56;;;4.93;96.55
5966;BME280;3009;43.224;27.976;2023-04-08T03:49:01;100908.94;;;5.01;98.20
5966;BME280;3009;43.224;27.976;2023-04-08T03:51:31;100909.50;;;5.08;98.26
5966;BME280;3009;43.224;27.976;2023-04-08T03:53:59;100913.00;;;5.14;98.00
5966;BME280;3009;43.224;27.976;2023-04-08T03:56:27;100913.78;;;5.09;97.47
5966;BME280;3009;43.224;27.976;2023-04-08T03:58:56;100922.25;;;5.06;97.86
5966;BME280;3009;43.224;27.976;2023-04-08T04:01:24;100918.31;;;5.14;98.92
5966;BME280;3009;43.224;27.976;2023-04-08T04:03:52;100923.31;;;5.05;100.00
5966;BME280;3009;43.224;27.976;2023-04-08T04:06:21;100919.41;;;5.18;100.00
5966;BME280;3009;43.224;27.976;2023-04-08T04:08:52;100919.38;;;5.13;100.00
5966;BME280;3009;43.224;27.976;2023-04-08T04:11:20;100925.78;;;5.22;100.00
5966;BME280;3009;43.224;27.976;2023-04-08T04:13:49;100931.78;;;5.50;100.00
5966;BME280;3009;43.224;27.976;2023-04-08T04:16:17;100928.94;;;5.77;100.00
5966;BME280;3009;43.224;27.976;2023-04-08T04:18:45;100935.72;;;6.21;100.00
5966;BME280;3009;43.224;27.976;2023-04-08T04:21:14;100952.00;;;6.50;100.00
5966;BME280;3009;43.224;27.976;2023-04-08T04:23:43;100952.25;;;6.80;100.00
5966;BME280;3009;43.224;27.976;2023-04-08T04:26:14;100944.50;;;7.04;100.00
5966;BME280;3009;43.224;27.976;2023-04-08T04:28:45;100948.66;;;7.46;98.60
5966;BME280;3009;43.224;27.976;2023-04-08T04:31:19;100947.41;;;7.88;96.24
5966;BME280;3009;43.224;27.976;2023-04-08T04:33:48;100939.69;;;8.26;94.28
5966;BME280;3009;43.224;27.976;2023-04-08T04:36:17;100941.75;;;8.34;91.63
5966;BME280;3009;43.224;27.976;2023-04-08T04:38:45;100940.50;;;8.61;89.92
5966;BME280;3009;43.224;27.976;2023-04-08T04:41:17;100932.72;;;8.65;88.98
5966;BME280;3009;43.224;27.976;2023-04-08T04:43:45;100932.47;;;8.61;88.09
5966;BME280;3009;43.224;27.976;2023-04-08T04:46:14;100933.56;;;8.60;88.14
5966;BME280;3009;43.224;27.976;2023-04-08T04:48:42;100931.88;;;8.99;86.54
5966;BME280;3009;43.224;27.976;2023-04-08T04:51:12;100924.63;;;9.48;80.20
5966;BME280;3009;43.224;27.976;2023-04-08T04:53:43;100921.88;;;8.51;84.18
5966;BME280;3009;43.224;27.976;2023-04-08T04:56:11;100927.38;;;8.65;82.85
5966;BME280;3009;43.224;27.976;2023-04-08T04:58:41;100936.97;;;8.31;86.33
5966;BME280;3009;43.224;27.976;2023-04-08T05:01:09;100943.00;;;8.82;83.94
5966;BME280;3009;43.224;27.976;2023-04-08T05:03:38;100937.34;;;9.37;80.98
5966;BME280;3009;43.224;27.976;2023-04-08T05:06:06;100933.19;;;9.50;81.31
5966;BME280;3009;43.224;27.976;2023-04-08T05:08:35;100942.78;;;9.51;80.06
5966;BME280;3009;43.224;27.976;2023-04-08T05:11:03;100949.25;;;9.50;82.26
5966;BME280;3009;43.224;27.976;2023-04-08T05:13:36;100945.06;;;9.38;85.34
5966;BME280;3009;43.224;27.976;2023-04-08T05:16:06;100948.66;;;9.04;85.97
5966;BME280;3009;43.224;27.976;2023-04-08T05:18:35;100948.44;;;9.49;84.46
5966;BME280;3009;43.224;27.976;2023-04-08T05:21:03;100948.50;;;10.06;81.78
5966;BME280;3009;43.224;27.976;2023-04-08T05:23:33;100951.44;;;9.67;82.58
5966;BME280;3009;43.224;27.976;2023-04-08T05:26:01;100958.34;;;9.49;84.08
5966;BME280;3009;43.224;27.976;2023-04-08T05:28:30;100960.09;;;9.10;87.58
5966;BME280;3009;43.224;27.976;2023-04-08T05:30:58;100948.34;;;8.82;88.96
5966;BME280;3009;43.224;27.976;2023-04-08T05:33:28;100956.31;;;9.16;86.63
5966;BME280;3009;43.224;27.976;2023-04-08T05:35:56;100952.22;;;9.24;90.18
5966;BME280;3009;43.224;27.976;2023-04-08T05:38:25;100955.31;;;9.31;93.33
5966;BME280;3009;43.224;27.976;2023-04-08T05:40:53;100956.50;;;10.63;84.98
5966;BME280;3009;43.224;27.976;2023-04-08T05:43:22;100959.81;;;11.85;74.53
5966;BME280;3009;43.224;27.976;2023-04-08T05:45:50;100968.97;;;12.89;70.92
5966;BME280;3009;43.224;27.976;2023-04-08T05:48:18;100963.78;;;14.34;62.87
5966;BME280;3009;43.224;27.976;2023-04-08T05:50:48;100960.44;;;13.93;65.23
5966;BME280;3009;43.224;27.976;2023-04-08T05:53:16;100956.94;;;15.19;60.20
5966;BME280;3009;43.224;27.976;2023-04-08T05:55:45;100950.13;;;14.48;59.80
5966;BME280;3009;43.224;27.976;2023-04-08T05:58:13;100954.44;;;14.31;61.49
5966;BME280;3009;43.224;27.976;2023-04-08T06:00:42;100957.13;;;14.31;60.71
5966;BME280;3009;43.224;27.976;2023-04-08T06:03:10;100960.91;;;14.65;57.69
5966;BME280;3009;43.224;27.976;2023-04-08T06:05:39;100961.06;;;14.69;58.85
5966;BME280;3009;43.224;27.976;2023-04-08T06:08:09;100965.22;;;15.44;57.23
5966;BME280;3009;43.224;27.976;2023-04-08T06:10:37;100953.94;;;14.56;58.72
5966;BME280;3009;43.224;27.976;2023-04-08T06:13:06;100960.50;;;15.32;55.84
5966;BME280;3009;43.224;27.976;2023-04-08T06:15:34;100967.47;;;16.13;54.76
5966;BME280;3009;43.224;27.976;2023-04-08T06:18:03;100964.50;;;16.61;50.18
5966;BME280;3009;43.224;27.976;2023-04-08T06:20:31;100970.78;;;15.68;53.30
5966;BME280;3009;43.224;27.976;2023-04-08T06:23:00;100967.72;;;15.49;54.62
5966;BME280;3009;43.224;27.976;2023-04-08T06:25:30;100971.25;;;14.28;57.68
5966;BME280;3009;43.224;27.976;2023-04-08T06:27:58;100969.38;;;15.41;54.15
5966;BME280;3009;43.224;27.976;2023-04-08T06:30:26;100971.03;;;16.60;50.69
5966;BME280;3009;43.224;27.976;2023-04-08T06:32:55;100964.88;;;14.68;54.75
5966;BME280;3009;43.224;27.976;2023-04-08T06:35:23;100966.78;;;13.97;56.76
5966;BME280;3009;43.224;27.976;2023-04-08T06:37:52;100963.78;;;12.92;58.00
5966;BME280;3009;43.224;27.976;2023-04-08T06:40:20;100972.13;;;13.62;56.64
5966;BME280;3009;43.224;27.976;2023-04-08T06:42:50;100957.91;;;14.49;57.30
5966;BME280;3009;43.224;27.976;2023-04-08T06:45:20;100956.97;;;15.10;53.57
5966;BME280;3009;43.224;27.976;2023-04-08T06:47:48;100965.31;;;15.26;53.23
5966;BME280;3009;43.224;27.976;2023-04-08T06:50:17;100967.97;;;14.96;54.80
5966;BME280;3009;43.224;27.976;2023-04-08T06:52:45;100972.34;;;14.36;54.86
5966;BME280;3009;43.224;27.976;2023-04-08T06:55:14;100970.06;;;14.82;55.85
5966;BME280;3009;43.224;27.976;2023-04-08T06:57:42;100973.50;;;15.09;53.77
5966;BME280;3009;43.224;27.976;2023-04-08T07:00:12;100972.44;;;15.31;53.64
5966;BME280;3009;43.224;27.976;2023-04-08T07:02:41;100971.13;;;15.67;53.26
5966;BME280;3009;43.224;27.976;2023-04-08T07:05:10;100969.81;;;14.31;55.54
5966;BME280;3009;43.224;27.976;2023-04-08T07:07:38;100979.66;;;14.70;53.33
5966;BME280;3009;43.224;27.976;2023-04-08T07:10:07;100987.72;;;14.44;53.96
5966;BME280;3009;43.224;27.976;2023-04-08T07:12:37;100987.88;;;14.83;54.34
5966;BME280;3009;43.224;27.976;2023-04-08T07:15:07;100975.81;;;14.63;55.33
5966;BME280;3009;43.224;27.976;2023-04-08T07:17:37;100985.16;;;14.92;56.17
5966;BME280;3009;43.224;27.976;2023-04-08T07:20:06;100988.03;;;13.81;61.32
5966;BME280;3009;43.224;27.976;2023-04-08T07:22:35;100991.78;;;13.54;62.39
5966;BME280;3009;43.224;27.976;2023-04-08T07:25:04;101000.13;;;12.81;66.72
5966;BME280;3009;43.224;27.976;2023-04-08T07:27:32;100996.66;;;11.57;72.90
5966;BME280;3009;43.224;27.976;2023-04-08T07:30:01;101002.03;;;11.43;77.33
5966;BME280;3009;43.224;27.976;2023-04-08T07:32:30;101009.78;;;11.31;78.19
5966;BME280;3009;43.224;27.976;2023-04-08T07:35:01;101010.91;;;11.72;77.50
5966;BME280;3009;43.224;27.976;2023-04-08T07:37:29;101014.06;;;12.01;77.72
5966;BME280;3009;43.224;27.976;2023-04-08T07:39:58;101019.03;;;11.80;80.34
5966;BME280;3009;43.224;27.976;2023-04-08T07:42:26;101008.19;;;11.99;79.88
5966;BME280;3009;43.224;27.976;2023-04-08T07:44:54;101007.63;;;12.25;78.90
5966;BME280;3009;43.224;27.976;2023-04-08T07:47:23;101010.06;;;12.13;79.15
5966;BME280;3009;43.224;27.976;2023-04-08T07:49:51;101010.75;;;12.04;78.97
5966;BME280;3009;43.224;27.976;2023-04-08T07:52:21;101005.00;;;11.69;79.78
5966;BME280;3009;43.224;27.976;2023-04-08T07:54:50;101008.28;;;12.08;79.91
5966;BME280;3009;43.224;27.976;2023-04-08T07:57:18;101006.72;;;12.30;81.33
5966;BME280;3009;43.224;27.976;2023-04-08T07:59:47;101018.66;;;12.37;79.60
5966;BME280;3009;43.224;27.976;2023-04-08T08:02:15;101008.78;;;11.82;81.52
5966;BME280;3009;43.224;27.976;2023-04-08T08:04:44;101017.25;;;11.76;85.30
5966;BME280;3009;43.224;27.976;2023-04-08T08:07:13;101019.31;;;11.79;83.90
5966;BME280;3009;43.224;27.976;2023-04-08T08:09:42;101009.00;;;11.58;83.80
5966;BME280;3009;43.224;27.976;2023-04-08T08:12:11;101015.78;;;11.97;81.71
5966;BME280;3009;43.224;27.976;2023-04-08T08:14:39;101019.44;;;11.74;82.33
5966;BME280;3009;43.224;27.976;2023-04-08T08:17:07;101015.69;;;11.00;86.69
5966;BME280;3009;43.224;27.976;2023-04-08T08:19:36;101009.75;;;11.17;85.89
5966;BME280;3009;43.224;27.976;2023-04-08T08:22:04;101012.78;;;11.29;87.46
5966;BME280;3009;43.224;27.976;2023-04-08T08:24:32;101016.84;;;11.41;85.87
5966;BME280;3009;43.224;27.976;2023-04-08T08:27:02;101019.25;;;11.98;82.73
5966;BME280;3009;43.224;27.976;2023-04-08T08:29:32;101024.50;;;11.89;80.20
5966;BME280;3009;43.224;27.976;2023-04-08T08:32:00;101027.56;;;12.10;81.31
5966;BME280;3009;43.224;27.976;2023-04-08T08:34:29;101017.25;;;12.63;79.29
5966;BME280;3009;43.224;27.976;2023-04-08T08:36:57;101022.50;;;12.45;77.29
5966;BME280;3009;43.224;27.976;2023-04-08T08:39:26;101023.00;;;12.70;76.27
5966;BME280;3009;43.224;27.976;2023-04-08T08:41:54;101028.84;;;12.94;72.54
5966;BME280;3009;43.224;27.976;2023-04-08T08:44:24;101027.81;;;12.82;72.70
5966;BME280;3009;43.224;27.976;2023-04-08T08:46:54;101032.59;;;13.07;72.54
5966;BME280;3009;43.224;27.976;2023-04-08T08:49:22;101035.34;;;12.48;74.11
5966;BME280;3009;43.224;27.976;2023-04-08T08:51:51;101026.63;;;12.65;75.73
5966;BME280;3009;43.224;27.976;2023-04-08T08:54:20;101029.72;;;12.58;75.49
5966;BME280;3009;43.224;27.976;2023-04-08T08:56:49;101028.69;;;12.68;74.11
5966;BME280;3009;43.224;27.976;2023-04-08T08:59:17;101040.38;;;12.64;74.32
5966;BME280;3009;43.224;27.976;2023-04-08T09:01:47;101035.31;;;12.26;76.71
5966;BME280;3009;43.224;27.976;2023-04-08T09:04:17;101034.91;;;13.00;74.47
5966;BME280;3009;43.224;27.976;2023-04-08T09:06:48;101044.69;;;12.51;75.43
5966;BME280;3009;43.224;27.976;2023-04-08T09:09:17;101042.75;;;12.43;76.84
5966;BME280;3009;43.224;27.976;2023-04-08T09:11:46;101047.22;;;12.70;76.45
5966;BME280;3009;43.224;27.976;2023-04-08T09:14:18;101047.22;;;12.92;74.12
5966;BME280;3009;43.224;27.976;2023-04-08T09:16:48;101054.69;;;12.73;74.47
5966;BME280;3009;43.224;27.976;2023-04-08T09:19:17;101060.72;;;12.19;76.47
5966;BME280;3009;43.224;27.976;2023-04-08T09:22:03;101055.16;;;12.52;76.66
5966;BME280;3009;43.224;27.976;2023-04-08T09:24:33;101048.31;;;12.46;78.09
5966;BME280;3009;43.224;27.976;2023-04-08T09:27:03;101049.88;;;12.11;78.36
5966;BME280;3009;43.224;27.976;2023-04-08T09:29:31;101055.69;;;12.40;77.56
5966;BME280;3009;43.224;27.976;2023-04-08T09:32:06;101058.16;;;12.14;77.46
5966;BME280;3009;43.224;27.976;2023-04-08T09:34:35;101053.53;;;12.65;75.39
5966;BME280;3009;43.224;27.976;2023-04-08T09:37:03;101051.59;;;12.07;77.42
5966;BME280;3009;43.224;27.976;2023-04-08T09:39:33;101047.22;;;12.70;75.71
5966;BME280;3009;43.224;27.976;2023-04-08T09:42:05;101046.34;;;12.24;75.94
5966;BME280;3009;43.224;27.976;2023-04-08T09:44:39;101053.19;;;11.94;78.77
5966;BME280;3009;43.224;27.976;2023-04-08T09:47:18;101050.75;;;12.56;77.23
5966;BME280;3009;43.224;27.976;2023-04-08T09:49:51;101052.31;;;12.35;77.31
5966;BME280;3009;43.224;27.976;2023-04-08T09:52:24;101045.94;;;12.90;74.79
5966;BME280;3009;43.224;27.976;2023-04-08T09:55:01;101055.72;;;12.86;74.49
5966;BME280;3009;43.224;27.976;2023-04-08T09:57:36;101053.56;;;12.74;76.81
5966;BME280;3009;43.224;27.976;2023-04-08T10:00:09;101051.06;;;12.18;77.78
5966;BME280;3009;43.224;27.976;2023-04-08T10:02:51;101054.84;;;12.17;79.59
5966;BME280;3009;43.224;27.976;2023-04-08T10:05:23;101036.06;;;12.03;78.86
5966;BME280;3009;43.224;27.976;2023-04-08T10:07:52;101043.09;;;11.44;81.20
5966;BME280;3009;43.224;27.976;2023-04-08T10:10:21;101038.94;;;11.65;83.31
5966;BME280;3009;43.224;27.976;2023-04-08T10:12:50;101041.69;;;12.30;81.00
5966;BME280;3009;43.224;27.976;2023-04-08T10:15:26;101037.16;;;11.88;79.87
5966;BME280;3009;43.224;27.976;2023-04-08T10:18:31;101031.78;;;12.02;80.44
5966;BME280;3009;43.224;27.976;2023-04-08T10:21:00;101036.38;;;12.02;80.51
5966;BME280;3009;43.224;27.976;2023-04-08T10:23:53;101035.03;;;12.13;81.14
5966;BME280;3009;43.224;27.976;2023-04-08T10:26:35;101035.44;;;12.20;80.91
5966;BME280;3009;43.224;27.976;2023-04-08T10:32:08;101029.59;;;11.63;84.79
5966;BME280;3009;43.224;27.976;2023-04-08T10:34:56;101029.69;;;11.58;86.70
5966;BME280;3009;43.224;27.976;2023-04-08T10:37:24;101022.53;;;11.81;85.06
5966;BME280;3009;43.224;27.976;2023-04-08T10:39:53;101023.72;;;11.75;84.49
5966;BME280;3009;43.224;27.976;2023-04-08T10:42:26;101018.63;;;11.45;86.21
5966;BME280;3009;43.224;27.976;2023-04-08T10:44:59;101014.75;;;11.65;86.45
5966;BME280;3009;43.224;27.976;2023-04-08T10:47:29;101030.28;;;11.96;85.12
5966;BME280;3009;43.224;27.976;2023-04-08T10:49:59;101034.94;;;11.91;82.24
5966;BME280;3009;43.224;27.976;2023-04-08T10:52:28;101029.13;;;12.25;82.60
5966;BME280;3009;43.224;27.976;2023-04-08T10:54:56;101032.91;;;12.61;80.91
5966;BME280;3009;43.224;27.976;2023-04-08T10:57:25;101032.69;;;12.34;78.22
5966;BME280;3009;43.224;27.976;2023-04-08T10:59:53;101038.75;;;12.03;80.75
5966;BME280;3009;43.224;27.976;2023-04-08T11:02:22;101025.78;;;11.64;86.87
5966;BME280;3009;43.224;27.976;2023-04-08T11:05:00;101027.44;;;11.93;84.79
5966;BME280;3009;43.224;27.976;2023-04-08T11:07:29;101034.88;;;11.96;85.17
5966;BME280;3009;43.224;27.976;2023-04-08T11:10:02;101032.88;;;11.74;84.83
5966;BME280;3009;43.224;27.976;2023-04-08T11:12:30;101035.25;;;11.89;84.78
5966;BME280;3009;43.224;27.976;2023-04-08T11:15:00;101025.19;;;11.53;87.14
5966;BME280;3009;43.224;27.976;2023-04-08T11:17:29;101019.16;;;11.61;86.84
5966;BME280;3009;43.224;27.976;2023-04-08T11:19:59;101017.13;;;10.78;89.87
5966;BME280;3009;43.224;27.976;2023-04-08T11:22:32;101021.44;;;10.93;89.82
5966;BME280;3009;43.224;27.976;2023-04-08T11:25:01;101026.84;;;11.07;88.75
5966;BME280;3009;43.224;27.976;2023-04-08T11:27:30;101021.06;;;11.00;90.28
5966;BME280;3009;43.224;27.976;2023-04-08T11:29:59;101019.59;;;11.08;90.25
5966;BME280;3009;43.224;27.976;2023-04-08T11:32:28;101018.44;;;10.81;90.95
5966;BME280;3009;43.224;27.976;2023-04-08T11:35:00;101011.47;;;11.41;87.54
5966;BME280;3009;43.224;27.976;2023-04-08T11:37:36;101007.50;;;11.80;84.24
5966;BME280;3009;43.224;27.976;2023-04-08T11:40:07;101010.09;;;11.43;83.80
5966;BME280;3009;43.224;27.976;2023-04-08T11:42:36;101006.31;;;11.72;83.08
5966;BME280;3009;43.224;27.976;2023-04-08T11:45:12;101002.00;;;11.85;84.03
5966;BME280;3009;43.224;27.976;2023-04-08T11:47:42;100995.19;;;12.29;80.25
5966;BME280;3009;43.224;27.976;2023-04-08T11:50:21;100996.94;;;12.79;76.61
5966;BME280;3009;43.224;27.976;2023-04-08T11:52:51;100995.94;;;12.98;76.83
5966;BME280;3009;43.224;27.976;2023-04-08T11:55:23;100993.88;;;12.94;77.83
5966;BME280;3009;43.224;27.976;2023-04-08T11:57:52;100988.97;;;12.97;77.10
5966;BME280;3009;43.224;27.976;2023-04-08T12:00:22;100991.06;;;12.77;75.81
5966;BME280;3009;43.224;27.976;2023-04-08T12:02:51;100989.38;;;12.58;76.70
5966;BME280;3009;43.224;27.976;2023-04-08T12:05:21;100989.53;;;12.17;77.80
5966;BME280;3009;43.224;27.976;2023-04-08T12:07:50;100981.19;;;12.18;81.93
5966;BME280;3009;43.224;27.976;2023-04-08T12:10:18;100970.50;;;11.21;85.89
5966;BME280;3009;43.224;27.976;2023-04-08T12:12:47;100969.69;;;11.62;85.02
5966;BME280;3009;43.224;27.976;2023-04-08T12:15:15;100973.44;;;11.89;84.52
5966;BME280;3009;43.224;27.976;2023-04-08T12:17:44;100980.19;;;11.86;84.95
5966;BME280;3009;43.224;27.976;2023-04-08T12:20:12;100973.56;;;11.56;82.99
5966;BME280;3009;43.224;27.976;2023-04-08T12:22:44;100978.84;;;11.06;85.40
5966;BME280;3009;43.224;27.976;2023-04-08T12:25:12;100973.78;;;11.18;87.84
5966;BME280;3009;43.224;27.976;2023-04-08T12:27:41;100980.28;;;11.31;87.22
5966;BME280;3009;43.224;27.976;2023-04-08T12:30:10;100968.91;;;11.20;87.33
5966;BME280;3009;43.224;27.976;2023-04-08T12:32:41;100964.84;;;11.23;85.51
5966;BME280;3009;43.224;27.976;2023-04-08T12:35:11;100963.94;;;11.27;87.66
5966;BME280;3009;43.224;27.976;2023-04-08T12:37:40;100955.56;;;11.01;88.47
5966;BME280;3009;43.224;27.976;2023-04-08T12:40:10;100955.47;;;11.06;88.08
5966;BME280;3009;43.224;27.976;2023-04-08T12:42:39;100951.72;;;11.07;88.48
5966;BME280;3009;43.224;27.976;2023-04-08T12:45:08;100954.81;;;11.14;86.91
5966;BME280;3009;43.224;27.976;2023-04-08T12:47:37;100954.56;;;10.83;89.61
5966;BME280;3009;43.224;27.976;2023-04-08T12:50:05;100948.84;;;10.57;92.73
5966;BME280;3009;43.224;27.976;2023-04-08T12:52:35;100951.09;;;10.82;92.59
5966;BME280;3009;43.224;27.976;2023-04-08T12:55:04;100949.31;;;10.59;93.75
5966;BME280;3009;43.224;27.976;2023-04-08T12:57:34;100943.28;;;10.34;96.25
5966;BME280;3009;43.224;27.976;2023-04-08T13:00:03;100935.88;;;10.45;96.62
5966;BME280;3009;43.224;27.976;2023-04-08T13:02:32;100944.88;;;10.16;96.60
5966;BME280;3009;43.224;27.976;2023-04-08T13:05:00;100948.34;;;10.17;98.09
5966;BME280;3009;43.224;27.976;2023-04-08T13:07:29;100951.69;;;10.08;99.80
5966;BME280;3009;43.224;27.976;2023-04-08T13:09:57;100949.38;;;10.21;99.19
5966;BME280;3009;43.224;27.976;2023-04-08T13:12:26;100942.78;;;10.65;97.07
5966;BME280;3009;43.224;27.976;2023-04-08T13:14:55;100939.06;;;10.94;95.12
5966;BME280;3009;43.224;27.976;2023-04-08T13:17:24;100938.72;;;10.68;97.64
5966;BME280;3009;43.224;27.976;2023-04-08T13:19:53;100943.66;;;10.93;94.65
5966;BME280;3009;43.224;27.976;2023-04-08T13:22:21;100937.69;;;10.96;94.01